Time;durP1;ratioP1;P1;durP2;ratioP2;P2;SDS_P1;SDS_P2;PMS_P1;PMS_P2;Temp;Humidity;BMP_temperature;BMP_pressure;BME280_temperature;BME280_humidity;BME280_pressure;Samples;Min_cycle;Max_cycle;Signal;HPM_P1;HPM_P2
2021/12/30 00:01:54;;;;;;;2.97;1.90;;;;;;;22.91;11.50;99892.06;5038640;28;20383;-77
2021/12/30 00:04:21;;;;;;;2.97;1.90;;;;;;;22.90;11.57;99905.97;5055034;28;20100;-77
2021/12/30 00:06:47;;;;;;;3.30;2.17;;;;;;;22.87;11.63;99900.00;5068762;28;20035;-77
2021/12/30 00:09:14;;;;;;;4.68;2.35;;;;;;;22.91;11.63;99897.53;5075874;28;20025;-75
2021/12/30 00:11:40;;;;;;;2.83;1.83;;;;;;;22.91;11.64;99902.97;5076049;28;20100;-77
2021/12/30 00:14:05;;;;;;;3.38;2.08;;;;;;;22.91;11.56;99902.16;5074806;28;20445;-76
2021/12/30 00:16:31;;;;;;;3.58;1.85;;;;;;;22.89;11.56;99910.63;5074415;28;20051;-77
2021/12/30 00:18:56;;;;;;;3.55;1.90;;;;;;;22.90;11.63;99917.69;5075812;28;20021;-77
2021/12/30 00:21:23;;;;;;;4.35;1.77;;;;;;;22.86;11.80;99911.19;5075321;28;20487;-77
2021/12/30 00:23:48;;;;;;;2.70;1.95;;;;;;;22.88;11.63;99922.59;5075643;28;20036;-76
2021/12/30 00:26:14;;;;;;;4.47;2.30;;;;;;;22.88;11.69;99911.72;5075178;28;20418;-76
2021/12/30 00:28:39;;;;;;;3.60;2.22;;;;;;;22.87;11.67;99910.09;5075442;28;20024;-77
2021/12/30 00:31:05;;;;;;;2.50;1.80;;;;;;;22.88;11.57;99900.81;5075164;28;20409;-77
2021/12/30 00:33:32;;;;;;;2.20;1.90;;;;;;;22.89;11.63;99907.91;5075005;28;20054;-77
2021/12/30 00:35:58;;;;;;;2.65;1.75;;;;;;;22.87;11.76;99900.00;5075316;28;20025;-76
2021/12/30 00:38:24;;;;;;;3.97;2.20;;;;;;;22.87;11.74;99891.84;5075025;28;20482;-76
2021/12/30 00:40:49;;;;;;;4.13;2.00;;;;;;;22.88;11.67;99887.19;5075085;28;20078;-76
2021/12/30 00:43:15;;;;;;;3.30;2.08;;;;;;;22.87;11.66;99882.84;5075041;28;20024;-77
2021/12/30 00:45:40;;;;;;;3.05;1.90;;;;;;;22.86;11.57;99886.66;5074998;28;20444;-76
2021/12/30 00:48:06;;;;;;;3.47;1.90;;;;;;;22.86;11.81;99892.91;5075029;28;20066;-76
2021/12/30 00:50:35;;;;;;;3.28;1.95;;;;;;;22.85;11.76;99896.75;5075005;28;20021;-76
2021/12/30 00:53:01;;;;;;;4.38;2.13;;;;;;;22.87;11.71;99893.75;5074594;28;20039;-76
2021/12/30 00:55:27;;;;;;;4.88;2.22;;;;;;;22.86;11.71;99884.75;5075588;28;20036;-76
2021/12/30 00:57:52;;;;;;;4.82;2.08;;;;;;;22.86;11.73;99881.22;5074854;28;20352;-76
2021/12/30 01:00:18;;;;;;;2.63;1.80;;;;;;;22.84;11.63;99886.94;5074595;28;20027;-76
2021/12/30 01:02:43;;;;;;;2.60;1.80;;;;;;;22.86;11.69;99886.66;5074704;28;20021;-77
2021/12/30 01:05:09;;;;;;;3.25;1.92;;;;;;;22.87;11.71;99888.31;5074284;28;20056;-77
2021/12/30 01:07:35;;;;;;;2.83;1.83;;;;;;;22.87;11.70;99877.41;5056569;28;20021;-76
2021/12/30 01:10:00;;;;;;;2.83;1.88;;;;;;;22.85;11.76;99872.22;5054690;28;20036;-76
2021/12/30 01:12:26;;;;;;;4.43;2.33;;;;;;;22.86;11.86;99867.59;5053360;28;20079;-77
2021/12/30 01:14:52;;;;;;;3.95;1.73;;;;;;;22.84;11.68;99851.53;5054225;28;20041;-77
2021/12/30 01:17:24;;;;;;;2.42;1.80;;;;;;;22.84;11.85;99853.44;5052741;28;20025;-76
2021/12/30 01:19:51;;;;;;;3.60;1.60;;;;;;;22.83;11.76;99849.06;5053393;28;20074;-77
2021/12/30 01:22:22;;;;;;;3.45;1.85;;;;;;;22.85;11.75;99852.31;5052736;28;20479;-78
2021/12/30 01:24:48;;;;;;;2.47;1.73;;;;;;;22.86;11.91;99848.53;5054561;28;20040;-77
2021/12/30 01:27:13;;;;;;;3.13;1.92;;;;;;;22.83;11.68;99841.72;5054186;28;20092;-76
2021/12/30 01:29:39;;;;;;;4.32;2.00;;;;;;;22.86;11.67;99840.34;5054199;28;20469;-76
2021/12/30 01:32:04;;;;;;;3.25;1.95;;;;;;;22.82;11.80;99839.28;5054038;28;20100;-77
2021/12/30 01:34:31;;;;;;;3.10;1.83;;;;;;;22.82;11.84;99836.56;5054044;28;20040;-76
2021/12/30 01:37:00;;;;;;;3.28;2.08;;;;;;;22.86;11.70;99837.63;5054046;28;20039;-76
2021/12/30 01:39:26;;;;;;;2.83;1.90;;;;;;;22.85;11.73;99835.97;5052459;28;20467;-76
2021/12/30 01:41:51;;;;;;;2.88;1.95;;;;;;;22.83;11.94;99839.00;5054084;28;20017;-76
2021/12/30 01:44:17;;;;;;;3.08;2.05;;;;;;;22.84;11.69;99839.81;5054145;28;20033;-76
2021/12/30 01:46:43;;;;;;;3.25;1.80;;;;;;;22.82;11.80;99847.47;5054011;28;20025;-76
2021/12/30 01:49:09;;;;;;;3.05;1.65;;;;;;;22.80;11.87;99858.66;5054127;28;20021;-77
2021/12/30 01:51:34;;;;;;;2.95;1.70;;;;;;;22.82;11.85;99852.91;5054137;28;20025;-77
2021/12/30 01:53:59;;;;;;;4.85;1.80;;;;;;;22.79;11.85;99858.91;5054043;28;20029;-77
2021/12/30 01:56:25;;;;;;;2.58;1.65;;;;;;;22.80;11.84;99844.19;5053791;28;20047;-77
2021/12/30 01:58:50;;;;;;;5.53;1.80;;;;;;;22.80;11.94;99844.19;5053555;28;20036;-76
2021/12/30 02:01:16;;;;;;;2.92;1.80;;;;;;;22.79;11.98;99845.31;5052734;28;20028;-76
2021/12/30 02:03:41;;;;;;;4.55;2.30;;;;;;;22.81;11.97;99845.81;5053517;28;20029;-76
2021/12/30 02:06:06;;;;;;;2.88;1.75;;;;;;;22.82;11.82;99847.47;5057494;28;20024;-76
2021/12/30 02:08:32;;;;;;;3.63;2.30;;;;;;;22.80;11.84;99834.13;5073683;28;20035;-77
2021/12/30 02:10:57;;;;;;;2.97;2.28;;;;;;;22.80;11.94;99833.28;5073765;28;20035;-76
2021/12/30 02:13:23;;;;;;;2.20;2.00;;;;;;;22.82;11.90;99831.13;5073626;28;20496;-76
2021/12/30 02:15:48;;;;;;;4.25;2.20;;;;;;;22.80;11.84;99836.00;5073478;28;20052;-76
2021/12/30 02:18:14;;;;;;;3.22;2.08;;;;;;;22.79;11.92;99842.56;5072473;28;20059;-76
2021/12/30 02:20:56;;;;;;;2.97;1.88;;;;;;;22.78;11.97;99835.50;5073672;28;20024;-77
2021/12/30 02:23:30;;;;;;;3.25;1.70;;;;;;;22.79;11.90;99823.50;5073563;28;20028;-76
2021/12/30 02:26:01;;;;;;;2.35;1.67;;;;;;;22.79;11.91;99823.50;5073300;28;20024;-76
2021/12/30 02:28:29;;;;;;;2.35;1.60;;;;;;;22.78;11.75;99825.41;5072546;28;20031;-76
2021/12/30 02:30:56;;;;;;;4.65;1.85;;;;;;;22.79;11.82;99821.59;5072484;28;20025;-76
2021/12/30 02:33:21;;;;;;;3.35;2.10;;;;;;;22.79;11.83;99821.59;5076313;28;20044;-76
2021/12/30 02:35:47;;;;;;;3.60;2.08;;;;;;;22.77;11.92;99812.09;5076533;28;20036;-76
2021/12/30 02:38:12;;;;;;;2.88;1.85;;;;;;;22.80;11.96;99806.06;5077645;28;20064;-76
2021/12/30 02:40:41;;;;;;;3.33;1.80;;;;;;;22.78;11.91;99805.53;5076358;28;20508;-76
2021/12/30 02:43:10;;;;;;;4.70;2.22;;;;;;;22.77;11.94;99815.63;5077549;28;20103;-76
2021/12/30 02:45:35;;;;;;;3.05;1.50;;;;;;;22.77;11.97;99814.81;5077391;28;20020;-76
2021/12/30 02:48:01;;;;;;;2.25;1.75;;;;;;;22.76;12.12;99811.25;5077436;28;20471;-75
2021/12/30 02:50:26;;;;;;;3.15;1.90;;;;;;;22.77;12.08;99820.25;5059545;28;20039;-76
2021/12/30 02:52:51;;;;;;;4.00;1.95;;;;;;;22.76;11.92;99813.97;5076650;28;20059;-77
2021/12/30 02:55:17;;;;;;;3.35;1.67;;;;;;;22.80;12.07;99822.41;5076476;28;20028;-77
2021/12/30 02:57:42;;;;;;;2.53;1.70;;;;;;;22.77;11.90;99812.09;5077770;28;20032;-76
2021/12/30 03:00:11;;;;;;;2.55;1.90;;;;;;;22.75;11.96;99814.25;5077221;28;20090;-77
2021/12/30 03:02:37;;;;;;;2.85;1.85;;;;;;;22.75;11.99;99819.69;5077299;28;20043;-77
2021/12/30 03:05:04;;;;;;;2.92;2.05;;;;;;;22.73;11.86;99822.72;5076410;28;20086;-76
2021/12/30 03:07:33;;;;;;;2.08;1.63;;;;;;;22.74;11.93;99824.34;5039986;28;20037;-76
2021/12/30 03:09:58;;;;;;;2.88;1.75;;;;;;;22.77;11.96;99826.50;5035609;28;20448;-76
2021/12/30 03:12:23;;;;;;;3.75;2.00;;;;;;;22.76;12.04;99829.50;5036253;28;20029;-78
2021/12/30 03:14:49;;;;;;;5.85;1.90;;;;;;;22.75;12.00;99834.16;5036696;28;20049;-76
2021/12/30 03:17:14;;;;;;;3.05;2.22;;;;;;;22.76;12.01;99841.22;5036585;28;20052;-76
2021/12/30 03:19:40;;;;;;;2.50;1.80;;;;;;;22.78;11.96;99851.84;5037457;28;20021;-76
2021/12/30 03:22:06;;;;;;;3.42;1.80;;;;;;;22.76;11.99;99859.47;5035666;28;20041;-77
2021/12/30 03:24:31;;;;;;;3.55;1.80;;;;;;;22.77;11.97;99872.03;5036533;28;20022;-77
2021/12/30 03:26:57;;;;;;;2.72;1.90;;;;;;;22.75;11.95;99863.28;5036034;28;20380;-76
2021/12/30 03:29:22;;;;;;;2.50;1.70;;;;;;;22.76;12.06;99873.09;5036406;28;20036;-77
2021/12/30 03:31:47;;;;;;;2.13;1.52;;;;;;;22.75;11.98;99869.56;5036440;28;20029;-76
2021/12/30 03:34:13;;;;;;;2.40;1.63;;;;;;;22.75;12.04;99880.47;5035120;28;20033;-76
2021/12/30 03:36:39;;;;;;;2.38;1.70;;;;;;;22.74;12.04;99876.09;5036073;28;20460;-76
2021/12/30 03:39:04;;;;;;;2.42;1.85;;;;;;;22.74;11.98;99872.56;5036507;28;20146;-76
2021/12/30 03:41:30;;;;;;;3.38;1.80;;;;;;;22.74;11.93;99864.41;5036584;28;20026;-76
2021/12/30 03:43:56;;;;;;;2.15;1.38;;;;;;;22.74;12.03;99862.47;5035776;28;20067;-77
2021/12/30 03:46:22;;;;;;;2.83;1.70;;;;;;;22.76;12.13;99864.94;5036404;28;20049;-77
2021/12/30 03:48:47;;;;;;;2.22;1.77;;;;;;;22.75;11.93;99857.84;5036564;28;20171;-77
2021/12/30 03:51:21;;;;;;;2.90;1.70;;;;;;;22.73;12.05;99862.75;5036502;28;20026;-77
2021/12/30 03:53:49;;;;;;;3.38;1.92;;;;;;;22.76;12.04;99862.19;5035371;28;20033;-77
2021/12/30 03:56:15;;;;;;;2.20;1.60;;;;;;;22.74;12.10;99856.22;5036587;28;20112;-77
2021/12/30 03:58:41;;;;;;;1.95;1.50;;;;;;;22.73;12.06;99854.59;5035613;28;20030;-77
2021/12/30 04:01:07;;;;;;;1.67;1.33;;;;;;;22.69;12.03;99846.97;5037844;28;20029;-77
2021/12/30 04:03:33;;;;;;;3.17;1.60;;;;;;;22.60;12.18;99850.59;5039800;28;20028;-77
2021/12/30 04:05:58;;;;;;;2.95;1.98;;;;;;;22.72;12.15;99858.44;5028392;28;20025;-77
2021/12/30 04:08:23;;;;;;;4.65;1.73;;;;;;;22.78;12.11;99840.94;5080329;28;20391;-77
2021/12/30 04:10:49;;;;;;;2.88;1.80;;;;;;;22.82;12.16;99842.81;5080068;28;20028;-77
2021/12/30 04:13:14;;;;;;;2.30;1.45;;;;;;;22.84;12.13;99845.28;5082281;28;20027;-77
2021/12/30 04:15:40;;;;;;;2.75;1.60;;;;;;;22.89;12.03;99831.63;5085354;28;20053;-77
2021/12/30 04:18:05;;;;;;;1.98;1.40;;;;;;;22.91;12.13;99834.88;5084907;28;20047;-77
2021/12/30 04:20:30;;;;;;;1.92;1.45;;;;;;;22.94;12.00;99828.84;5078642;28;20028;-77
2021/12/30 04:22:56;;;;;;;2.22;1.50;;;;;;;22.98;11.95;99834.53;5088262;28;20036;-77
2021/12/30 04:25:21;;;;;;;2.28;1.60;;;;;;;23.04;12.25;99828.78;5082958;28;20459;-77
2021/12/30 04:27:47;;;;;;;1.77;1.30;;;;;;;23.04;11.99;99833.41;5076521;28;20033;-76
2021/12/30 04:30:13;;;;;;;1.77;1.40;;;;;;;23.06;12.00;99833.97;5076072;28;20048;-76
2021/12/30 04:32:39;;;;;;;1.40;1.30;;;;;;;23.09;11.90;99829.84;5076165;28;20020;-75
2021/12/30 04:35:05;;;;;;;1.88;1.17;;;;;;;23.10;11.99;99834.22;5075505;28;20348;-75
2021/12/30 04:37:30;;;;;;;2.80;1.40;;;;;;;23.08;11.87;99839.94;5075407;28;20107;-76
2021/12/30 04:39:56;;;;;;;3.50;1.17;;;;;;;23.06;12.11;99837.50;5075244;28;20382;-75
2021/12/30 04:42:21;;;;;;;1.40;1.30;;;;;;;23.17;12.04;99843.69;5073886;28;20028;-75
2021/12/30 04:44:48;;;;;;;1.52;1.10;;;;;;;23.04;12.27;99853.31;5074778;28;20386;-76
2021/12/30 04:47:14;;;;;;;1.77;1.10;;;;;;;23.15;11.98;99845.09;5074774;28;20028;-76
2021/12/30 04:49:40;;;;;;;1.73;1.40;;;;;;;23.17;12.17;99840.16;5073765;28;20127;-76
2021/12/30 04:52:05;;;;;;;1.85;1.35;;;;;;;23.23;11.95;99834.38;5074616;28;20364;-76
2021/12/30 04:54:30;;;;;;;2.17;1.35;;;;;;;23.26;12.01;99835.72;5072833;28;20047;-76
2021/12/30 04:56:56;;;;;;;2.90;1.20;;;;;;;23.26;12.17;99835.72;5074892;28;20028;-77
2021/12/30 04:59:21;;;;;;;4.72;1.40;;;;;;;23.34;11.90;99821.47;5074416;28;20395;-76
2021/12/30 05:01:47;;;;;;;2.75;1.65;;;;;;;23.40;11.95;99814.03;5074201;28;20082;-75
2021/12/30 05:04:12;;;;;;;3.10;1.55;;;;;;;23.41;12.01;99800.13;5074498;28;20054;-76
2021/12/30 05:06:37;;;;;;;2.10;1.10;;;;;;;23.43;11.91;99813.47;5067949;28;20093;-76
2021/12/30 05:09:03;;;;;;;1.40;1.13;;;;;;;23.36;11.86;99805.63;5054798;28;20044;-76
2021/12/30 05:11:29;;;;;;;2.85;1.58;;;;;;;23.41;11.75;99800.13;5054574;28;20040;-76
2021/12/30 05:13:54;;;;;;;2.78;1.40;;;;;;;23.31;11.83;99800.22;5053983;28;20025;-75
2021/12/30 05:16:20;;;;;;;1.67;1.55;;;;;;;23.44;11.88;99806.94;5056235;28;20052;-75
2021/12/30 05:18:46;;;;;;;1.60;1.23;;;;;;;23.44;11.66;99807.75;5054144;28;20025;-75
2021/12/30 05:21:11;;;;;;;1.92;1.35;;;;;;;23.48;11.77;99809.91;5054109;28;20441;-76
2021/12/30 05:23:37;;;;;;;2.90;1.50;;;;;;;23.50;11.91;99799.50;5054454;28;20029;-76
2021/12/30 05:26:04;;;;;;;2.63;1.65;;;;;;;23.52;11.85;99800.03;5054210;28;20067;-76
2021/12/30 05:28:29;;;;;;;2.13;1.50;;;;;;;23.67;11.76;99794.41;5052905;28;20036;-76
2021/12/30 05:30:55;;;;;;;2.15;1.70;;;;;;;23.73;11.74;99796.00;5054840;28;20021;-76
2021/12/30 05:33:20;;;;;;;2.22;1.60;;;;;;;23.59;11.72;99801.34;5052461;28;20021;-76
2021/12/30 05:35:46;;;;;;;2.38;1.70;;;;;;;23.60;11.86;99797.47;5053997;28;20036;-75
2021/12/30 05:38:14;;;;;;;3.85;1.73;;;;;;;23.57;11.84;99789.06;5053798;28;20391;-76
2021/12/30 05:40:39;;;;;;;3.25;1.70;;;;;;;23.67;11.68;99785.44;5053519;28;20044;-76
2021/12/30 05:43:04;;;;;;;4.38;1.60;;;;;;;23.59;11.93;99789.59;5053809;28;20025;-76
2021/12/30 05:45:30;;;;;;;2.35;1.60;;;;;;;23.71;11.82;99789.19;5053423;28;20375;-76
2021/12/30 05:47:55;;;;;;;1.95;1.40;;;;;;;23.67;12.03;99785.44;5052419;28;20025;-75
2021/12/30 05:50:24;;;;;;;2.40;1.50;;;;;;;23.72;11.89;99786.19;5052455;28;20079;-75
2021/12/30 05:52:50;;;;;;;2.40;1.63;;;;;;;23.80;11.48;99771.91;5052180;28;20076;-75
2021/12/30 05:55:15;;;;;;;4.65;1.50;;;;;;;23.77;11.81;99768.94;5035647;28;20071;-75
2021/12/30 05:57:41;;;;;;;1.92;1.50;;;;;;;23.66;11.83;99757.31;5053078;28;20025;-76
2021/12/30 06:00:08;;;;;;;2.83;1.83;;;;;;;23.82;11.57;99758.00;5053529;28;20305;-76
2021/12/30 06:02:33;;;;;;;1.88;1.60;;;;;;;23.92;11.85;99754.31;5052189;28;20070;-76
2021/12/30 06:04:59;;;;;;;2.45;1.40;;;;;;;23.91;11.57;99744.53;5053069;28;20446;-75
2021/12/30 06:07:24;;;;;;;2.60;1.73;;;;;;;23.78;11.83;99744.09;5065729;28;20017;-76
2021/12/30 06:09:50;;;;;;;2.25;1.63;;;;;;;23.93;11.86;99745.03;5072315;28;20028;-76
2021/12/30 06:12:15;;;;;;;3.83;1.85;;;;;;;23.92;11.95;99748.88;5073353;28;20400;-77
2021/12/30 06:14:41;;;;;;;2.58;1.70;;;;;;;23.81;11.80;99748.19;5073560;28;20048;-77
2021/12/30 06:17:08;;;;;;;4.38;2.25;;;;;;;23.77;12.00;99747.94;5074051;28;20457;-77
2021/12/30 06:19:33;;;;;;;2.95;1.80;;;;;;;23.73;12.19;99748.78;5073956;28;20029;-76
2021/12/30 06:21:59;;;;;;;3.78;2.00;;;;;;;23.77;12.26;99749.84;5072102;28;20062;-76
2021/12/30 06:24:24;;;;;;;3.22;1.98;;;;;;;23.83;12.22;99745.16;5073233;28;20024;-76
2021/12/30 06:26:50;;;;;;;3.58;1.75;;;;;;;23.90;12.19;99749.16;5072716;28;20072;-75
2021/12/30 06:29:15;;;;;;;3.22;1.75;;;;;;;23.98;11.94;99747.69;5072908;28;20040;-75
2021/12/30 06:31:42;;;;;;;2.97;1.73;;;;;;;23.97;11.92;99735.16;5072328;28;20021;-75
2021/12/30 06:34:07;;;;;;;3.58;1.98;;;;;;;24.00;11.97;99738.09;5072299;28;20033;-76
2021/12/30 06:36:32;;;;;;;2.67;2.05;;;;;;;24.05;12.00;99745.41;5072995;28;20378;-76
2021/12/30 06:38:58;;;;;;;1.80;1.52;;;;;;;24.05;11.85;99748.16;5072470;28;20040;-77
2021/12/30 06:41:23;;;;;;;4.57;3.00;;;;;;;23.96;12.08;99733.53;5072902;28;20021;-76
2021/12/30 06:43:49;;;;;;;3.65;2.25;;;;;;;24.06;11.91;99749.78;5073040;28;20051;-76
2021/12/30 06:46:14;;;;;;;3.80;2.20;;;;;;;24.12;12.11;99759.50;5072853;28;20039;-77
2021/12/30 06:48:44;;;;;;;3.90;2.25;;;;;;;24.12;11.70;99764.16;5072294;28;20029;-76
2021/12/30 06:51:11;;;;;;;3.63;2.10;;;;;;;24.15;11.94;99758.94;5072104;28;20059;-76
2021/12/30 06:53:36;;;;;;;4.40;2.33;;;;;;;24.17;12.07;99756.72;5072610;28;20139;-75
2021/12/30 06:56:02;;;;;;;16.17;7.00;;;;;;;24.17;12.01;99748.53;5073334;28;20037;-76
2021/12/30 06:58:27;;;;;;;32.65;12.98;;;;;;;24.18;12.03;99752.91;5072097;28;20021;-75
2021/12/30 07:00:52;;;;;;;18.40;6.30;;;;;;;24.21;12.10;99747.94;5071185;28;20115;-75
2021/12/30 07:03:18;;;;;;;9.95;4.75;;;;;;;24.19;12.08;99754.50;5072589;28;20086;-75
2021/12/30 07:05:43;;;;;;;15.45;7.20;;;;;;;24.22;11.95;99749.59;5072688;28;20028;-75
2021/12/30 07:08:09;;;;;;;13.88;5.38;;;;;;;24.21;11.97;99750.69;5054518;28;20032;-75
2021/12/30 07:10:34;;;;;;;10.88;4.10;;;;;;;24.16;11.61;99744.19;5052544;28;20095;-75
2021/12/30 07:13:00;;;;;;;5.75;3.20;;;;;;;24.27;11.74;99750.31;5051476;28;20060;-75
2021/12/30 07:15:25;;;;;;;7.03;3.28;;;;;;;24.32;11.65;99735.78;5052628;28;20060;-75
2021/12/30 07:17:50;;;;;;;5.70;3.22;;;;;;;24.26;11.94;99739.69;5052304;28;20472;-74
2021/12/30 07:20:16;;;;;;;6.25;3.10;;;;;;;24.10;12.40;99739.91;5056358;28;20025;-74
2021/12/30 07:22:41;;;;;;;5.88;2.65;;;;;;;24.23;12.13;99737.53;5054995;28;20021;-76
2021/12/30 07:25:07;;;;;;;7.55;3.40;;;;;;;24.28;12.00;99735.53;5056683;28;20096;-75
2021/12/30 07:27:33;;;;;;;4.68;3.00;;;;;;;24.30;12.11;99735.25;5056900;28;20124;-75
2021/12/30 07:29:59;;;;;;;5.30;2.80;;;;;;;24.35;12.20;99740.63;5054727;28;20467;-75
2021/12/30 07:32:25;;;;;;;8.35;3.65;;;;;;;24.31;12.08;99745.88;5054806;28;20037;-75
2021/12/30 07:34:51;;;;;;;5.82;3.25;;;;;;;24.34;12.10;99737.09;5055999;28;20033;-75
2021/12/30 07:37:16;;;;;;;4.68;2.90;;;;;;;24.36;12.25;99736.81;5056086;28;20040;-75
2021/12/30 07:39:42;;;;;;;5.65;3.05;;;;;;;24.33;12.02;99732.75;5056227;28;20025;-76
2021/12/30 07:42:07;;;;;;;5.18;2.97;;;;;;;24.40;12.31;99724.19;5056088;28;20049;-75
2021/12/30 07:44:33;;;;;;;5.95;3.20;;;;;;;24.37;12.32;99717.41;5056107;28;20094;-74
2021/12/30 07:46:58;;;;;;;5.78;2.90;;;;;;;24.42;12.32;99705.56;5055912;28;20033;-74
2021/12/30 07:49:24;;;;;;;5.82;3.17;;;;;;;24.43;12.18;99704.47;5055592;28;20447;-74
2021/12/30 07:51:49;;;;;;;4.53;2.58;;;;;;;24.42;12.09;99713.75;5055603;28;20040;-74
2021/12/30 07:54:14;;;;;;;5.35;2.50;;;;;;;24.46;12.26;99706.63;5056010;28;20029;-74
2021/12/30 07:56:40;;;;;;;4.32;2.40;;;;;;;24.46;11.92;99703.88;5054267;28;20446;-74
2021/12/30 07:59:05;;;;;;;3.60;2.15;;;;;;;24.38;12.07;99691.69;5055547;28;20123;-73
2021/12/30 08:01:31;;;;;;;3.40;1.75;;;;;;;24.41;12.05;99693.03;5054245;28;20418;-75
2021/12/30 08:03:56;;;;;;;3.35;1.90;;;;;;;24.47;12.09;99688.31;5055252;28;20059;-73
2021/12/30 08:06:26;;;;;;;2.97;2.20;;;;;;;24.43;12.18;99690.81;5057730;28;20111;-74
2021/12/30 08:08:51;;;;;;;4.63;2.20;;;;;;;24.46;12.28;99692.16;5075199;28;20199;-73
2021/12/30 08:11:16;;;;;;;3.22;2.22;;;;;;;24.49;11.92;99681.44;5075327;28;20032;-72
2021/12/30 08:13:42;;;;;;;5.68;2.20;;;;;;;24.49;12.24;99683.34;5075613;28;20021;-73
2021/12/30 08:16:07;;;;;;;2.15;1.63;;;;;;;24.49;11.96;99676.00;5073343;28;20541;-73
2021/12/30 08:18:33;;;;;;;3.03;1.92;;;;;;;24.51;12.06;99684.69;5075220;28;20032;-73
2021/12/30 08:20:59;;;;;;;3.22;1.98;;;;;;;24.48;11.80;99679.00;5075045;28;20387;-74
2021/12/30 08:23:24;;;;;;;2.70;1.83;;;;;;;24.51;12.25;99681.97;5079240;28;20031;-75
2021/12/30 08:25:51;;;;;;;2.30;2.10;;;;;;;24.49;12.10;99678.72;5079122;28;20024;-74
2021/12/30 08:28:17;;;;;;;2.50;1.70;;;;;;;24.51;12.08;99681.97;5076192;28;20157;-73
2021/12/30 08:30:43;;;;;;;2.10;1.70;;;;;;;24.54;12.09;99669.63;5074966;28;20367;-74
2021/12/30 08:33:08;;;;;;;2.75;1.70;;;;;;;24.57;11.96;99676.44;5074714;28;20028;-74
2021/12/30 08:35:34;;;;;;;2.45;1.50;;;;;;;24.55;12.05;99671.28;5077501;28;20043;-74
2021/12/30 08:38:00;;;;;;;2.40;1.90;;;;;;;24.57;11.71;99677.25;5075917;28;20020;-74
2021/12/30 08:40:25;;;;;;;3.13;2.25;;;;;;;24.51;11.88;99684.69;5073722;28;20529;-73
2021/12/30 08:42:50;;;;;;;6.60;2.97;;;;;;;24.44;12.30;99683.44;5074729;28;20021;-73
2021/12/30 08:45:17;;;;;;;4.80;2.67;;;;;;;24.55;12.14;99672.06;5074914;28;20497;-73
2021/12/30 08:47:43;;;;;;;6.40;3.35;;;;;;;24.55;12.16;99655.69;5074242;28;20036;-73
2021/12/30 08:50:10;;;;;;;4.80;3.28;;;;;;;24.42;12.09;99661.88;5074544;28;20025;-74
2021/12/30 08:52:36;;;;;;;4.30;3.08;;;;;;;24.38;12.08;99658.94;5075390;28;20060;-73
2021/12/30 08:55:04;;;;;;;5.63;2.58;;;;;;;24.41;11.84;99657.53;5076459;28;20028;-74
2021/12/30 08:57:31;;;;;;;8.10;2.10;;;;;;;24.48;12.06;99660.69;5079681;28;20036;-74
2021/12/30 08:59:57;;;;;;;3.72;2.42;;;;;;;24.46;11.99;99660.19;5074500;28;20051;-75
2021/12/30 09:02:22;;;;;;;3.00;2.40;;;;;;;24.43;12.03;99665.44;5073244;28;20070;-74
2021/12/30 09:04:48;;;;;;;3.25;2.10;;;;;;;24.46;11.95;99649.25;5076207;28;20439;-74
2021/12/30 09:07:15;;;;;;;2.33;2.10;;;;;;;24.54;11.72;99648.63;5066118;28;20020;-74
2021/12/30 09:09:41;;;;;;;4.60;1.90;;;;;;;24.49;11.86;99647.84;5054798;28;20028;-73
2021/12/30 09:12:07;;;;;;;2.95;2.03;;;;;;;24.47;11.79;99641.88;5052517;28;20565;-74
2021/12/30 09:14:33;;;;;;;2.83;1.98;;;;;;;24.54;11.85;99648.63;5053627;28;20379;-74
2021/12/30 09:16:58;;;;;;;2.55;1.98;;;;;;;24.53;11.96;99643.44;5054092;28;20032;-74
2021/12/30 09:19:24;;;;;;;2.85;2.08;;;;;;;24.52;11.69;99642.59;5054882;28;20114;-74
2021/12/30 09:21:49;;;;;;;2.60;2.03;;;;;;;24.44;11.87;99639.72;5055228;28;20029;-74
2021/12/30 09:24:15;;;;;;;2.00;1.65;;;;;;;24.51;11.88;99635.53;5054341;28;20368;-74
2021/12/30 09:26:40;;;;;;;3.47;1.60;;;;;;;24.58;11.71;99617.94;5053061;28;20079;-74
2021/12/30 09:29:10;;;;;;;2.80;1.95;;;;;;;24.55;12.08;99613.91;5054299;28;20025;-74
2021/12/30 09:31:38;;;;;;;1.98;1.77;;;;;;;24.47;12.08;99612.63;5053934;28;20028;-75
2021/12/30 09:34:04;;;;;;;2.10;1.88;;;;;;;24.48;11.99;99608.00;5052797;28;20025;-73
2021/12/30 09:36:30;;;;;;;1.67;1.52;;;;;;;24.59;12.09;99608.66;5056751;28;20091;-74
2021/12/30 09:38:55;;;;;;;1.85;1.67;;;;;;;24.57;11.65;99589.84;5061995;28;20017;-74
2021/12/30 09:41:21;;;;;;;1.67;1.58;;;;;;;24.48;11.78;99567.84;5055229;28;20028;-74
2021/12/30 09:43:46;;;;;;;2.17;1.90;;;;;;;24.52;12.02;99571.56;5053675;28;20486;-74
2021/12/30 09:46:11;;;;;;;1.70;1.60;;;;;;;24.67;12.00;99577.94;5053990;28;20116;-74
2021/12/30 09:48:37;;;;;;;1.60;1.50;;;;;;;24.61;11.95;99563.56;5053032;28;20029;-74
2021/12/30 09:51:02;;;;;;;3.17;1.88;;;;;;;24.57;11.85;99572.66;5053497;28;20067;-73
2021/12/30 09:53:29;;;;;;;1.88;1.60;;;;;;;24.53;12.04;99567.75;5052110;28;20029;-74
2021/12/30 09:55:59;;;;;;;3.03;1.73;;;;;;;24.58;12.15;99568.78;5054295;28;20111;-74
2021/12/30 09:58:25;;;;;;;1.90;1.70;;;;;;;24.61;12.23;99562.72;5053109;28;20104;-74
2021/12/30 10:00:51;;;;;;;2.67;2.00;;;;;;;24.70;11.81;99552.75;5052970;28;20497;-74
2021/12/30 10:03:16;;;;;;;2.90;2.40;;;;;;;24.61;12.22;99536.25;5053848;28;20135;-74
2021/12/30 10:05:43;;;;;;;2.83;2.53;;;;;;;24.57;12.03;99523.47;5053990;28;20506;-74
2021/12/30 10:08:11;;;;;;;4.15;2.88;;;;;;;24.69;12.25;99515.59;5053309;28;20025;-74
2021/12/30 10:10:39;;;;;;;3.33;2.50;;;;;;;24.70;12.13;99511.75;5053802;28;20036;-74
2021/12/30 10:13:32;;;;;;;4.47;2.80;;;;;;;24.71;12.39;99514.16;5055150;28;20033;-73
2021/12/30 10:16:02;;;;;;;3.08;2.55;;;;;;;24.66;12.26;99521.66;5053130;28;20087;-74
2021/12/30 10:18:48;;;;;;;2.83;2.20;;;;;;;24.72;12.50;99525.91;5053253;28;20063;-73
2021/12/30 10:21:18;;;;;;;2.90;2.60;;;;;;;24.61;12.67;99519.84;5053374;28;20028;-73
2021/12/30 10:23:48;;;;;;;3.42;2.50;;;;;;;24.49;12.61;99535.88;5053434;28;20361;-72
2021/12/30 10:26:13;;;;;;;4.00;2.85;;;;;;;24.58;12.67;99531.38;5053096;28;20053;-73
2021/12/30 10:28:40;;;;;;;8.07;3.38;;;;;;;24.73;12.13;99538.44;5053013;28;20028;-73
2021/12/30 10:31:11;;;;;;;7.15;3.83;;;;;;;24.78;11.98;99535.63;5053657;28;20107;-73
2021/12/30 10:33:45;;;;;;;8.25;4.00;;;;;;;24.70;12.46;99548.06;5053977;28;20108;-73
2021/12/30 10:36:21;;;;;;;5.90;3.38;;;;;;;24.63;12.58;99552.31;5053743;28;20045;-73
2021/12/30 10:38:47;;;;;;;4.80;2.80;;;;;;;24.73;12.34;99563.03;5053198;28;20025;-73
2021/12/30 10:41:12;;;;;;;5.78;2.38;;;;;;;24.74;12.44;99551.00;5053278;28;20471;-73
2021/12/30 10:43:45;;;;;;;5.72;3.22;;;;;;;24.55;12.83;99549.16;5052576;28;20032;-74
2021/12/30 10:46:14;;;;;;;3.60;2.10;;;;;;;24.57;12.88;99540.66;5053922;28;20029;-73
2021/12/30 10:48:54;;;;;;;2.40;1.83;;;;;;;24.68;12.59;99544.00;5053887;28;20102;-74
2021/12/30 10:51:40;;;;;;;8.18;3.00;;;;;;;24.79;12.77;99536.44;5053890;28;20028;-73
2021/12/30 10:54:18;;;;;;;2.83;2.00;;;;;;;24.75;12.60;99536.25;5056793;28;20033;-73
2021/12/30 10:56:48;;;;;;;3.05;2.10;;;;;;;24.73;12.71;99533.00;5057857;28;20036;-74
2021/12/30 10:59:20;;;;;;;3.72;2.17;;;;;;;24.74;12.78;99532.69;5057297;28;20103;-74
2021/12/30 11:01:51;;;;;;;4.13;2.45;;;;;;;24.70;12.94;99534.41;5057055;28;20033;-73
2021/12/30 11:04:17;;;;;;;12.13;5.03;;;;;;;24.64;12.54;99541.06;5057278;28;20017;-72
2021/12/30 11:06:43;;;;;;;5.40;2.70;;;;;;;24.70;12.77;99550.00;5059563;28;20025;-73
2021/12/30 11:09:15;;;;;;;4.85;2.97;;;;;;;24.70;12.86;99536.34;5080020;28;20068;-74
2021/12/30 11:11:47;;;;;;;3.15;2.10;;;;;;;24.81;12.45;99553.34;5087835;28;20025;-74
2021/12/30 11:14:17;;;;;;;2.92;2.05;;;;;;;24.75;12.73;99538.97;5067914;28;20031;-73
2021/12/30 11:17:03;;;;;;;3.67;2.53;;;;;;;24.75;12.98;99530.78;5083240;28;20115;-74
2021/12/30 11:19:29;;;;;;;6.65;2.30;;;;;;;24.73;12.63;99522.88;5086118;28;20090;-74
2021/12/30 11:21:58;;;;;;;4.65;2.30;;;;;;;24.73;12.79;99511.97;5083011;28;20025;-73
2021/12/30 11:24:28;;;;;;;4.90;2.22;;;;;;;24.76;12.46;99509.72;5058691;28;20148;-74
2021/12/30 11:26:54;;;;;;;2.28;1.80;;;;;;;24.76;12.71;99510.53;5077532;28;20104;-74
2021/12/30 11:29:20;;;;;;;247.15;95.03;;;;;;;24.74;12.80;99507.28;5041299;28;20060;-75
2021/12/30 11:31:45;;;;;;;53.53;22.73;;;;;;;24.86;12.78;99507.59;5076310;28;20485;-74